KPKB/PKB METAR and TAF weather

Enter ICAO airport designator
Station Type Date Time Source
KPKB METAR 2019/02/17 15:53 UTC NOAA

KPKB 171553Z 06005KT 10SM OVC028 M01/M07 A2991 RMK AO2 SLP136 T10061067


Station Type Date Time Source
KPKB Decoded METAR 2019/02/17 15:53 UTC NOAA

MID-OHIO VALLEY RGNL AIRPORT, WV, United States (KPKB) 39-20N 81-27W
Feb 17, 2019 - 10:53 AM EST / 2019.02.17 1553 UTC
Wind: from the ENE (060 degrees) at 6 MPH (5 KT):0
Visibility: 10 mile(s):0
Sky conditions: overcast
Temperature: 30.9 F (-0.6 C)
Windchill: 24 F (-4 C):1
Dew Point: 19.9 F (-6.7 C)
Relative Humidity: 63%
Pressure (altimeter): 29.91 in. Hg (1012 hPa)
ob: KPKB 171553Z 06005KT 10SM OVC028 M01/M07 A2991 RMK AO2 SLP136 T10061067
cycle: 16

Station Type Date Time Source
KPKB TAF 2019/02/17 15:59 UTC NOAA

TAF
AMD KPKB 171459Z 1715/1812 06003KT P6SM SCT025 OVC035
TEMPO 1715/1717 6SM BR BKN025
FM171700 11005KT P6SM OVC028
FM172000 15004KT 6SM BR OVC019
FM180500 23004KT 6SM BR BKN007
FM180800 27007KT P6SM BKN010


Example: see airport list